sensor_id;sensor_type;location;lat;lon;timestamp;temperature;humidity
66013;DHT22;52783;50.502;8.190;2024-01-06T00:01:26;5.90;99.90
66013;DHT22;52783;50.502;8.190;2024-01-06T00:03:51;5.90;99.90
66013;DHT22;52783;50.502;8.190;2024-01-06T00:06:17;5.90;99.90
66013;DHT22;52783;50.502;8.190;2024-01-06T00:08:43;6.00;99.90
66013;DHT22;52783;50.502;8.190;2024-01-06T00:11:09;6.00;99.90
66013;DHT22;52783;50.502;8.190;2024-01-06T00:13:35;6.00;99.90
66013;DHT22;52783;50.502;8.190;2024-01-06T00:16:01;6.00;99.90
66013;DHT22;52783;50.502;8.190;2024-01-06T00:18:26;6.00;99.90
66013;DHT22;52783;50.502;8.190;2024-01-06T00:20:52;6.00;99.90
66013;DHT22;52783;50.502;8.190;2024-01-06T00:23:18;6.00;99.90
66013;DHT22;52783;50.502;8.190;2024-01-06T00:25:43;6.00;99.90
66013;DHT22;52783;50.502;8.190;2024-01-06T00:28:09;6.00;99.90
66013;DHT22;52783;50.502;8.190;2024-01-06T00:30:35;6.00;99.90
66013;DHT22;52783;50.502;8.190;2024-01-06T00:33:00;6.00;99.90
66013;DHT22;52783;50.502;8.190;2024-01-06T00:35:26;6.10;99.90
66013;DHT22;52783;50.502;8.190;2024-01-06T00:37:51;6.10;99.90
66013;DHT22;52783;50.502;8.190;2024-01-06T00:40:17;6.10;99.90
66013;DHT22;52783;50.502;8.190;2024-01-06T00:42:45;6.10;99.90
66013;DHT22;52783;50.502;8.190;2024-01-06T00:45:10;6.00;99.90
66013;DHT22;52783;50.502;8.190;2024-01-06T00:47:35;6.00;99.90
66013;DHT22;52783;50.502;8.190;2024-01-06T00:50:01;6.00;99.90
66013;DHT22;52783;50.502;8.190;2024-01-06T00:52:26;6.00;99.90
66013;DHT22;52783;50.502;8.190;2024-01-06T00:54:52;6.10;99.90
66013;DHT22;52783;50.502;8.190;2024-01-06T00:57:17;6.10;99.90
66013;DHT22;52783;50.502;8.190;2024-01-06T00:59:49;6.10;99.90
66013;DHT22;52783;50.502;8.190;2024-01-06T01:02:14;6.10;99.90
66013;DHT22;52783;50.502;8.190;2024-01-06T01:04:40;6.10;99.90
66013;DHT22;52783;50.502;8.190;2024-01-06T01:07:05;6.10;99.90
66013;DHT22;52783;50.502;8.190;2024-01-06T01:09:31;6.20;99.90
66013;DHT22;52783;50.502;8.190;2024-01-06T01:11:56;6.20;99.90
66013;DHT22;52783;50.502;8.190;2024-01-06T01:14:22;6.20;99.90
66013;DHT22;52783;50.502;8.190;2024-01-06T01:16:48;6.10;99.90
66013;DHT22;52783;50.502;8.190;2024-01-06T01:19:14;6.00;99.90
66013;DHT22;52783;50.502;8.190;2024-01-06T01:21:39;6.00;99.90
66013;DHT22;52783;50.502;8.190;2024-01-06T01:24:05;6.00;99.90
66013;DHT22;52783;50.502;8.190;2024-01-06T01:26:30;6.00;99.90
66013;DHT22;52783;50.502;8.190;2024-01-06T01:28:56;6.00;99.90
66013;DHT22;52783;50.502;8.190;2024-01-06T01:31:21;6.00;99.90
66013;DHT22;52783;50.502;8.190;2024-01-06T01:33:47;6.00;99.90
66013;DHT22;52783;50.502;8.190;2024-01-06T01:36:12;6.00;99.90
66013;DHT22;52783;50.502;8.190;2024-01-06T01:38:38;6.00;99.90
66013;DHT22;52783;50.502;8.190;2024-01-06T01:41:03;6.00;99.90
66013;DHT22;52783;50.502;8.190;2024-01-06T01:43:29;5.90;99.90
66013;DHT22;52783;50.502;8.190;2024-01-06T01:45:56;6.00;99.90
66013;DHT22;52783;50.502;8.190;2024-01-06T01:48:22;6.10;99.90
66013;DHT22;52783;50.502;8.190;2024-01-06T01:50:49;6.10;99.90
66013;DHT22;52783;50.502;8.190;2024-01-06T01:53:15;6.10;99.90
66013;DHT22;52783;50.502;8.190;2024-01-06T01:55:42;6.20;99.90
66013;DHT22;52783;50.502;8.190;2024-01-06T01:58:10;6.20;99.90
66013;DHT22;52783;50.502;8.190;2024-01-06T02:00:37;6.20;99.90
66013;DHT22;52783;50.502;8.190;2024-01-06T02:03:04;6.20;99.90
66013;DHT22;52783;50.502;8.190;2024-01-06T02:05:30;6.20;99.90
66013;DHT22;52783;50.502;8.190;2024-01-06T02:07:56;6.20;99.90
66013;DHT22;52783;50.502;8.190;2024-01-06T02:10:22;6.30;99.90
66013;DHT22;52783;50.502;8.190;2024-01-06T02:12:48;6.20;99.90
66013;DHT22;52783;50.502;8.190;2024-01-06T02:15:14;6.20;99.90
66013;DHT22;52783;50.502;8.190;2024-01-06T02:17:40;6.20;99.90
66013;DHT22;52783;50.502;8.190;2024-01-06T02:20:07;6.30;99.90
66013;DHT22;52783;50.502;8.190;2024-01-06T02:22:34;6.20;99.90
66013;DHT22;52783;50.502;8.190;2024-01-06T02:25:00;6.20;99.90
66013;DHT22;52783;50.502;8.190;2024-01-06T02:27:25;6.20;99.90
66013;DHT22;52783;50.502;8.190;2024-01-06T02:29:51;6.20;99.90
66013;DHT22;52783;50.502;8.190;2024-01-06T02:32:16;6.20;99.90
66013;DHT22;52783;50.502;8.190;2024-01-06T02:34:42;6.20;99.90
66013;DHT22;52783;50.502;8.190;2024-01-06T02:40:41;6.20;99.90
66013;DHT22;52783;50.502;8.190;2024-01-06T02:43:08;6.20;99.90
66013;DHT22;52783;50.502;8.190;2024-01-06T02:45:34;6.20;99.90
66013;DHT22;52783;50.502;8.190;2024-01-06T02:48:00;6.20;99.90
66013;DHT22;52783;50.502;8.190;2024-01-06T02:50:25;6.20;99.90
66013;DHT22;52783;50.502;8.190;2024-01-06T02:52:50;6.20;99.90
66013;DHT22;52783;50.502;8.190;2024-01-06T02:55:16;6.10;99.90
66013;DHT22;52783;50.502;8.190;2024-01-06T02:57:41;6.10;99.90
66013;DHT22;52783;50.502;8.190;2024-01-06T03:00:08;6.10;99.90
66013;DHT22;52783;50.502;8.190;2024-01-06T03:02:33;6.00;99.90
66013;DHT22;52783;50.502;8.190;2024-01-06T03:05:01;6.00;99.90
66013;DHT22;52783;50.502;8.190;2024-01-06T03:07:26;6.00;99.90
66013;DHT22;52783;50.502;8.190;2024-01-06T03:09:52;6.00;99.90
66013;DHT22;52783;50.502;8.190;2024-01-06T03:12:18;6.00;99.90
66013;DHT22;52783;50.502;8.190;2024-01-06T03:14:43;6.00;99.90
66013;DHT22;52783;50.502;8.190;2024-01-06T03:17:09;5.90;99.90
66013;DHT22;52783;50.502;8.190;2024-01-06T03:19:37;5.90;99.90
66013;DHT22;52783;50.502;8.190;2024-01-06T03:22:03;6.00;99.90
66013;DHT22;52783;50.502;8.190;2024-01-06T03:24:28;6.00;99.90
66013;DHT22;52783;50.502;8.190;2024-01-06T03:26:54;6.00;99.90
66013;DHT22;52783;50.502;8.190;2024-01-06T03:29:19;6.00;99.90
66013;DHT22;52783;50.502;8.190;2024-01-06T03:31:45;6.00;99.90
66013;DHT22;52783;50.502;8.190;2024-01-06T03:34:11;6.00;99.90
66013;DHT22;52783;50.502;8.190;2024-01-06T03:36:37;6.00;99.90
66013;DHT22;52783;50.502;8.190;2024-01-06T03:39:03;6.10;99.90
66013;DHT22;52783;50.502;8.190;2024-01-06T03:41:29;6.10;99.90
66013;DHT22;52783;50.502;8.190;2024-01-06T03:43:54;6.10;99.90
66013;DHT22;52783;50.502;8.190;2024-01-06T03:46:20;6.10;99.90
66013;DHT22;52783;50.502;8.190;2024-01-06T03:48:46;6.10;99.90
66013;DHT22;52783;50.502;8.190;2024-01-06T03:51:12;6.10;99.90
66013;DHT22;52783;50.502;8.190;2024-01-06T03:53:38;6.10;99.90
66013;DHT22;52783;50.502;8.190;2024-01-06T03:56:05;6.10;99.90
66013;DHT22;52783;50.502;8.190;2024-01-06T03:58:31;6.10;99.90
66013;DHT22;52783;50.502;8.190;2024-01-06T04:00:56;6.20;99.90
66013;DHT22;52783;50.502;8.190;2024-01-06T04:03:22;6.10;99.90
66013;DHT22;52783;50.502;8.190;2024-01-06T04:05:47;6.10;99.90
66013;DHT22;52783;50.502;8.190;2024-01-06T04:08:13;6.10;99.90
66013;DHT22;52783;50.502;8.190;2024-01-06T04:10:38;6.00;99.90
66013;DHT22;52783;50.502;8.190;2024-01-06T04:13:05;6.00;99.90
66013;DHT22;52783;50.502;8.190;2024-01-06T04:15:30;6.00;99.90
66013;DHT22;52783;50.502;8.190;2024-01-06T04:17:56;6.00;99.90
66013;DHT22;52783;50.502;8.190;2024-01-06T04:20:21;6.00;99.90
66013;DHT22;52783;50.502;8.190;2024-01-06T04:22:47;6.00;99.90
66013;DHT22;52783;50.502;8.190;2024-01-06T04:25:12;6.00;99.90
66013;DHT22;52783;50.502;8.190;2024-01-06T04:27:38;6.00;99.90
66013;DHT22;52783;50.502;8.190;2024-01-06T04:30:04;6.00;99.90
66013;DHT22;52783;50.502;8.190;2024-01-06T04:32:29;6.00;99.90
66013;DHT22;52783;50.502;8.190;2024-01-06T04:34:55;6.00;99.90
66013;DHT22;52783;50.502;8.190;2024-01-06T04:37:22;6.00;99.90
66013;DHT22;52783;50.502;8.190;2024-01-06T04:39:47;6.00;99.90
66013;DHT22;52783;50.502;8.190;2024-01-06T04:42:13;6.00;99.90
66013;DHT22;52783;50.502;8.190;2024-01-06T04:44:38;6.00;99.90
66013;DHT22;52783;50.502;8.190;2024-01-06T04:47:04;6.00;99.90
66013;DHT22;52783;50.502;8.190;2024-01-06T04:49:29;5.90;99.90
66013;DHT22;52783;50.502;8.190;2024-01-06T04:51:55;5.90;99.90
66013;DHT22;52783;50.502;8.190;2024-01-06T04:54:21;6.00;99.90
66013;DHT22;52783;50.502;8.190;2024-01-06T04:56:47;6.00;99.90
66013;DHT22;52783;50.502;8.190;2024-01-06T04:59:13;5.90;99.90
66013;DHT22;52783;50.502;8.190;2024-01-06T05:01:38;5.90;99.90
66013;DHT22;52783;50.502;8.190;2024-01-06T05:04:04;5.90;99.90
66013;DHT22;52783;50.502;8.190;2024-01-06T05:06:30;5.80;99.90
66013;DHT22;52783;50.502;8.190;2024-01-06T05:08:55;5.80;99.90
66013;DHT22;52783;50.502;8.190;2024-01-06T05:11:21;5.80;99.90
66013;DHT22;52783;50.502;8.190;2024-01-06T05:13:46;5.80;99.90
66013;DHT22;52783;50.502;8.190;2024-01-06T05:16:11;5.90;99.90
66013;DHT22;52783;50.502;8.190;2024-01-06T05:18:37;5.90;99.90
66013;DHT22;52783;50.502;8.190;2024-01-06T05:21:03;5.80;99.90
66013;DHT22;52783;50.502;8.190;2024-01-06T05:23:29;5.80;99.90
66013;DHT22;52783;50.502;8.190;2024-01-06T05:25:54;5.80;99.90
66013;DHT22;52783;50.502;8.190;2024-01-06T05:28:20;5.90;99.90
66013;DHT22;52783;50.502;8.190;2024-01-06T05:30:45;5.80;99.90
66013;DHT22;52783;50.502;8.190;2024-01-06T05:33:12;5.80;99.90
66013;DHT22;52783;50.502;8.190;2024-01-06T05:35:39;5.80;99.90
66013;DHT22;52783;50.502;8.190;2024-01-06T05:38:04;5.80;99.90
66013;DHT22;52783;50.502;8.190;2024-01-06T05:40:30;5.80;99.90
66013;DHT22;52783;50.502;8.190;2024-01-06T05:42:55;5.80;99.90
66013;DHT22;52783;50.502;8.190;2024-01-06T05:45:22;5.80;99.90
66013;DHT22;52783;50.502;8.190;2024-01-06T05:47:48;5.80;99.90
66013;DHT22;52783;50.502;8.190;2024-01-06T05:50:16;5.80;99.90
66013;DHT22;52783;50.502;8.190;2024-01-06T05:52:42;5.70;99.90
66013;DHT22;52783;50.502;8.190;2024-01-06T05:55:08;5.70;99.90
66013;DHT22;52783;50.502;8.190;2024-01-06T05:57:34;5.70;99.90
66013;DHT22;52783;50.502;8.190;2024-01-06T06:00:00;5.70;99.90
66013;DHT22;52783;50.502;8.190;2024-01-06T06:02:25;5.70;99.90
66013;DHT22;52783;50.502;8.190;2024-01-06T06:04:51;5.80;99.90
66013;DHT22;52783;50.502;8.190;2024-01-06T06:07:18;5.80;99.90
66013;DHT22;52783;50.502;8.190;2024-01-06T06:09:43;5.80;99.90
66013;DHT22;52783;50.502;8.190;2024-01-06T06:12:09;5.80;99.90
66013;DHT22;52783;50.502;8.190;2024-01-06T06:14:34;5.80;99.90
66013;DHT22;52783;50.502;8.190;2024-01-06T06:17:00;5.70;99.90
66013;DHT22;52783;50.502;8.190;2024-01-06T06:19:25;5.70;99.90
66013;DHT22;52783;50.502;8.190;2024-01-06T06:21:51;5.70;99.90
66013;DHT22;52783;50.502;8.190;2024-01-06T06:24:16;5.70;99.90
66013;DHT22;52783;50.502;8.190;2024-01-06T06:26:42;5.70;99.90
66013;DHT22;52783;50.502;8.190;2024-01-06T06:29:07;5.70;99.90
66013;DHT22;52783;50.502;8.190;2024-01-06T06:31:33;5.70;99.90
66013;DHT22;52783;50.502;8.190;2024-01-06T06:33:58;5.70;99.90
66013;DHT22;52783;50.502;8.190;2024-01-06T06:36:24;5.70;99.90
66013;DHT22;52783;50.502;8.190;2024-01-06T06:38:49;5.70;99.90
66013;DHT22;52783;50.502;8.190;2024-01-06T06:41:15;5.70;99.90
66013;DHT22;52783;50.502;8.190;2024-01-06T06:43:41;5.70;99.90
66013;DHT22;52783;50.502;8.190;2024-01-06T06:46:07;5.60;99.90
66013;DHT22;52783;50.502;8.190;2024-01-06T06:48:33;5.60;99.90
66013;DHT22;52783;50.502;8.190;2024-01-06T06:51:01;5.60;99.90
66013;DHT22;52783;50.502;8.190;2024-01-06T06:53:26;5.50;99.90
66013;DHT22;52783;50.502;8.190;2024-01-06T06:55:51;5.60;99.90
66013;DHT22;52783;50.502;8.190;2024-01-06T06:58:17;5.60;99.90
66013;DHT22;52783;50.502;8.190;2024-01-06T07:00:42;5.70;99.90
66013;DHT22;52783;50.502;8.190;2024-01-06T07:03:09;5.70;99.90
66013;DHT22;52783;50.502;8.190;2024-01-06T07:05:34;5.50;99.90
66013;DHT22;52783;50.502;8.190;2024-01-06T07:08:00;5.40;99.90
66013;DHT22;52783;50.502;8.190;2024-01-06T07:10:26;5.30;99.90
66013;DHT22;52783;50.502;8.190;2024-01-06T07:12:52;5.40;99.90
66013;DHT22;52783;50.502;8.190;2024-01-06T07:15:17;5.30;99.90
66013;DHT22;52783;50.502;8.190;2024-01-06T07:17:43;5.30;99.90
66013;DHT22;52783;50.502;8.190;2024-01-06T07:20:09;5.30;99.90
66013;DHT22;52783;50.502;8.190;2024-01-06T07:22:35;5.20;99.90
66013;DHT22;52783;50.502;8.190;2024-01-06T07:25:01;5.20;99.90
66013;DHT22;52783;50.502;8.190;2024-01-06T07:27:27;5.20;99.90
66013;DHT22;52783;50.502;8.190;2024-01-06T07:29:52;5.10;99.90
66013;DHT22;52783;50.502;8.190;2024-01-06T07:32:18;7.10;99.90
66013;DHT22;52783;50.502;8.190;2024-01-06T07:34:43;6.30;99.90
66013;DHT22;52783;50.502;8.190;2024-01-06T07:37:09;5.90;99.90
66013;DHT22;52783;50.502;8.190;2024-01-06T07:39:34;5.70;99.90
66013;DHT22;52783;50.502;8.190;2024-01-06T07:42:00;5.50;99.90
66013;DHT22;52783;50.502;8.190;2024-01-06T07:44:25;5.50;99.90
66013;DHT22;52783;50.502;8.190;2024-01-06T07:46:52;5.50;99.90
66013;DHT22;52783;50.502;8.190;2024-01-06T07:49:17;5.50;99.90
66013;DHT22;52783;50.502;8.190;2024-01-06T07:51:43;5.50;99.90
66013;DHT22;52783;50.502;8.190;2024-01-06T07:54:08;5.50;99.90
66013;DHT22;52783;50.502;8.190;2024-01-06T07:56:35;5.60;99.90
66013;DHT22;52783;50.502;8.190;2024-01-06T07:59:01;5.60;99.90
66013;DHT22;52783;50.502;8.190;2024-01-06T08:01:27;5.50;99.90
66013;DHT22;52783;50.502;8.190;2024-01-06T08:03:53;5.50;99.90
66013;DHT22;52783;50.502;8.190;2024-01-06T08:06:18;5.50;99.90
66013;DHT22;52783;50.502;8.190;2024-01-06T08:08:44;5.50;99.90
66013;DHT22;52783;50.502;8.190;2024-01-06T08:11:11;5.50;99.90
66013;DHT22;52783;50.502;8.190;2024-01-06T08:13:37;5.50;99.90
66013;DHT22;52783;50.502;8.190;2024-01-06T08:16:03;6.60;99.90
66013;DHT22;52783;50.502;8.190;2024-01-06T08:18:28;7.30;99.90
66013;DHT22;52783;50.502;8.190;2024-01-06T08:20:54;6.40;99.90
66013;DHT22;52783;50.502;8.190;2024-01-06T08:23:19;6.20;99.90
66013;DHT22;52783;50.502;8.190;2024-01-06T08:25:46;6.10;99.90
66013;DHT22;52783;50.502;8.190;2024-01-06T08:28:13;6.00;99.90
66013;DHT22;52783;50.502;8.190;2024-01-06T08:30:40;5.80;99.90
66013;DHT22;52783;50.502;8.190;2024-01-06T08:33:05;5.90;99.90
66013;DHT22;52783;50.502;8.190;2024-01-06T08:35:31;5.90;99.90
66013;DHT22;52783;50.502;8.190;2024-01-06T08:37:57;5.90;99.90
66013;DHT22;52783;50.502;8.190;2024-01-06T08:40:22;6.00;99.90
66013;DHT22;52783;50.502;8.190;2024-01-06T08:42:48;5.80;99.90
66013;DHT22;52783;50.502;8.190;2024-01-06T08:45:14;5.90;99.90
66013;DHT22;52783;50.502;8.190;2024-01-06T08:47:39;6.10;99.90
66013;DHT22;52783;50.502;8.190;2024-01-06T08:50:06;6.10;99.90
66013;DHT22;52783;50.502;8.190;2024-01-06T08:52:32;6.00;99.90
66013;DHT22;52783;50.502;8.190;2024-01-06T08:54:57;6.10;99.90
66013;DHT22;52783;50.502;8.190;2024-01-06T08:57:23;6.10;99.90
66013;DHT22;52783;50.502;8.190;2024-01-06T08:59:48;6.00;99.90
66013;DHT22;52783;50.502;8.190;2024-01-06T09:02:14;6.00;99.90
66013;DHT22;52783;50.502;8.190;2024-01-06T09:04:39;6.00;99.90
66013;DHT22;52783;50.502;8.190;2024-01-06T09:07:05;6.00;99.90
66013;DHT22;52783;50.502;8.190;2024-01-06T09:09:30;6.00;99.90
66013;DHT22;52783;50.502;8.190;2024-01-06T09:11:56;6.00;99.90
66013;DHT22;52783;50.502;8.190;2024-01-06T09:14:21;6.00;99.90
66013;DHT22;52783;50.502;8.190;2024-01-06T09:16:47;6.00;99.90
66013;DHT22;52783;50.502;8.190;2024-01-06T09:19:12;6.10;99.90
66013;DHT22;52783;50.502;8.190;2024-01-06T09:21:38;6.00;99.90
66013;DHT22;52783;50.502;8.190;2024-01-06T09:24:03;6.00;99.90
66013;DHT22;52783;50.502;8.190;2024-01-06T09:26:32;6.10;99.90
66013;DHT22;52783;50.502;8.190;2024-01-06T09:29:00;6.10;99.90
66013;DHT22;52783;50.502;8.190;2024-01-06T09:31:25;6.20;99.90
66013;DHT22;52783;50.502;8.190;2024-01-06T09:33:51;6.20;99.90
66013;DHT22;52783;50.502;8.190;2024-01-06T09:36:16;6.20;99.90
66013;DHT22;52783;50.502;8.190;2024-01-06T09:38:43;6.30;99.90
66013;DHT22;52783;50.502;8.190;2024-01-06T09:41:08;6.30;99.90
66013;DHT22;52783;50.502;8.190;2024-01-06T09:43:34;6.30;99.90
66013;DHT22;52783;50.502;8.190;2024-01-06T09:46:15;6.20;99.90
66013;DHT22;52783;50.502;8.190;2024-01-06T09:48:43;6.30;99.90
66013;DHT22;52783;50.502;8.190;2024-01-06T09:51:11;6.20;99.90
66013;DHT22;52783;50.502;8.190;2024-01-06T09:53:43;6.30;99.90
66013;DHT22;52783;50.502;8.190;2024-01-06T09:56:12;6.40;99.90
66013;DHT22;52783;50.502;8.190;2024-01-06T09:58:38;6.40;99.90
66013;DHT22;52783;50.502;8.190;2024-01-06T10:01:05;6.50;99.90
66013;DHT22;52783;50.502;8.190;2024-01-06T10:03:31;6.50;99.90
66013;DHT22;52783;50.502;8.190;2024-01-06T10:05:59;6.50;99.90
66013;DHT22;52783;50.502;8.190;2024-01-06T10:08:29;6.50;99.90
66013;DHT22;52783;50.502;8.190;2024-01-06T10:10:55;6.40;99.90
66013;DHT22;52783;50.502;8.190;2024-01-06T10:13:20;6.30;99.90
66013;DHT22;52783;50.502;8.190;2024-01-06T10:15:46;6.30;99.90
66013;DHT22;52783;50.502;8.190;2024-01-06T10:18:13;6.40;99.90
66013;DHT22;52783;50.502;8.190;2024-01-06T10:20:38;6.40;99.90
66013;DHT22;52783;50.502;8.190;2024-01-06T10:23:05;6.30;99.90
66013;DHT22;52783;50.502;8.190;2024-01-06T10:25:31;6.40;99.90
66013;DHT22;52783;50.502;8.190;2024-01-06T10:27:57;6.40;99.90
66013;DHT22;52783;50.502;8.190;2024-01-06T10:30:25;6.30;99.90
66013;DHT22;52783;50.502;8.190;2024-01-06T10:32:52;6.40;99.90
66013;DHT22;52783;50.502;8.190;2024-01-06T10:35:18;6.40;99.90
66013;DHT22;52783;50.502;8.190;2024-01-06T10:37:44;6.30;99.90
66013;DHT22;52783;50.502;8.190;2024-01-06T10:42:38;6.30;99.90
66013;DHT22;52783;50.502;8.190;2024-01-06T10:45:08;6.30;99.90
66013;DHT22;52783;50.502;8.190;2024-01-06T10:47:35;6.30;99.90
66013;DHT22;52783;50.502;8.190;2024-01-06T10:50:01;6.30;99.90
66013;DHT22;52783;50.502;8.190;2024-01-06T10:52:30;6.30;99.90
66013;DHT22;52783;50.502;8.190;2024-01-06T10:54:57;6.30;99.90
66013;DHT22;52783;50.502;8.190;2024-01-06T10:57:23;6.30;99.90
66013;DHT22;52783;50.502;8.190;2024-01-06T10:59:53;6.30;99.90
66013;DHT22;52783;50.502;8.190;2024-01-06T11:02:19;6.30;99.90
66013;DHT22;52783;50.502;8.190;2024-01-06T11:04:46;6.40;99.90
66013;DHT22;52783;50.502;8.190;2024-01-06T11:07:13;6.50;99.90
66013;DHT22;52783;50.502;8.190;2024-01-06T11:09:44;6.40;99.90
66013;DHT22;52783;50.502;8.190;2024-01-06T11:12:12;6.40;99.90
66013;DHT22;52783;50.502;8.190;2024-01-06T11:14:38;6.50;99.90
66013;DHT22;52783;50.502;8.190;2024-01-06T11:17:03;6.40;99.90
66013;DHT22;52783;50.502;8.190;2024-01-06T11:22:29;6.40;99.90
66013;DHT22;52783;50.502;8.190;2024-01-06T11:25:07;6.50;99.90
66013;DHT22;52783;50.502;8.190;2024-01-06T11:27:33;6.40;99.90
66013;DHT22;52783;50.502;8.190;2024-01-06T11:30:02;6.40;99.90
66013;DHT22;52783;50.502;8.190;2024-01-06T11:32:39;6.40;99.90
66013;DHT22;52783;50.502;8.190;2024-01-06T11:35:11;6.40;99.90
66013;DHT22;52783;50.502;8.190;2024-01-06T11:42:46;6.20;99.90
66013;DHT22;52783;50.502;8.190;2024-01-06T11:45:13;6.10;99.90
66013;DHT22;52783;50.502;8.190;2024-01-06T11:47:39;6.10;99.90
66013;DHT22;52783;50.502;8.190;2024-01-06T11:50:06;6.00;99.90
66013;DHT22;52783;50.502;8.190;2024-01-06T11:52:32;6.10;99.90
66013;DHT22;52783;50.502;8.190;2024-01-06T11:54:59;6.30;99.90
66013;DHT22;52783;50.502;8.190;2024-01-06T11:57:28;6.20;99.90
66013;DHT22;52783;50.502;8.190;2024-01-06T11:59:54;6.00;99.90
66013;DHT22;52783;50.502;8.190;2024-01-06T12:02:20;5.90;99.90
66013;DHT22;52783;50.502;8.190;2024-01-06T12:04:56;5.90;99.90
66013;DHT22;52783;50.502;8.190;2024-01-06T12:07:22;5.80;99.90
66013;DHT22;52783;50.502;8.190;2024-01-06T12:09:48;5.90;99.90
66013;DHT22;52783;50.502;8.190;2024-01-06T12:12:18;6.00;99.90
66013;DHT22;52783;50.502;8.190;2024-01-06T12:14:44;6.00;99.90
66013;DHT22;52783;50.502;8.190;2024-01-06T12:17:11;6.00;99.90
66013;DHT22;52783;50.502;8.190;2024-01-06T12:19:39;6.10;99.90
66013;DHT22;52783;50.502;8.190;2024-01-06T12:22:05;6.10;99.90
66013;DHT22;52783;50.502;8.190;2024-01-06T12:24:31;6.10;99.90
66013;DHT22;52783;50.502;8.190;2024-01-06T12:26:57;6.00;99.90
66013;DHT22;52783;50.502;8.190;2024-01-06T12:29:26;6.00;99.90
66013;DHT22;52783;50.502;8.190;2024-01-06T12:31:53;6.00;99.90
66013;DHT22;52783;50.502;8.190;2024-01-06T12:34:19;6.00;99.90
66013;DHT22;52783;50.502;8.190;2024-01-06T12:36:45;5.90;99.90
66013;DHT22;52783;50.502;8.190;2024-01-06T12:39:12;5.70;99.90
66013;DHT22;52783;50.502;8.190;2024-01-06T12:41:40;5.60;99.90
66013;DHT22;52783;50.502;8.190;2024-01-06T12:44:06;5.80;99.90
66013;DHT22;52783;50.502;8.190;2024-01-06T12:46:32;5.80;99.90
66013;DHT22;52783;50.502;8.190;2024-01-06T12:48:58;5.80;99.90
66013;DHT22;52783;50.502;8.190;2024-01-06T12:51:23;5.80;99.90
66013;DHT22;52783;50.502;8.190;2024-01-06T12:53:49;5.80;99.90
66013;DHT22;52783;50.502;8.190;2024-01-06T12:56:15;5.80;99.90
66013;DHT22;52783;50.502;8.190;2024-01-06T12:58:41;5.90;99.90
66013;DHT22;52783;50.502;8.190;2024-01-06T13:01:07;5.90;99.90
66013;DHT22;52783;50.502;8.190;2024-01-06T13:03:33;5.90;99.90
66013;DHT22;52783;50.502;8.190;2024-01-06T13:05:59;5.80;99.90
66013;DHT22;52783;50.502;8.190;2024-01-06T13:08:25;5.90;99.90
66013;DHT22;52783;50.502;8.190;2024-01-06T13:10:51;5.90;99.90
66013;DHT22;52783;50.502;8.190;2024-01-06T13:13:17;5.80;99.90
66013;DHT22;52783;50.502;8.190;2024-01-06T13:15:42;5.80;99.90
66013;DHT22;52783;50.502;8.190;2024-01-06T13:18:08;5.90;99.90
66013;DHT22;52783;50.502;8.190;2024-01-06T13:20:33;5.80;99.90
66013;DHT22;52783;50.502;8.190;2024-01-06T13:22:59;5.80;99.90
66013;DHT22;52783;50.502;8.190;2024-01-06T13:25:24;5.90;99.90
66013;DHT22;52783;50.502;8.190;2024-01-06T13:27:50;6.00;99.90
66013;DHT22;52783;50.502;8.190;2024-01-06T13:30:17;6.10;99.90
66013;DHT22;52783;50.502;8.190;2024-01-06T13:32:42;6.10;99.90
66013;DHT22;52783;50.502;8.190;2024-01-06T13:35:08;6.10;99.90
66013;DHT22;52783;50.502;8.190;2024-01-06T13:37:36;6.10;99.90
66013;DHT22;52783;50.502;8.190;2024-01-06T13:40:02;6.30;99.90
66013;DHT22;52783;50.502;8.190;2024-01-06T13:42:28;6.10;99.90
66013;DHT22;52783;50.502;8.190;2024-01-06T13:44:54;6.10;99.90
66013;DHT22;52783;50.502;8.190;2024-01-06T13:47:19;6.00;99.90
66013;DHT22;52783;50.502;8.190;2024-01-06T13:49:45;6.10;99.90
66013;DHT22;52783;50.502;8.190;2024-01-06T13:52:10;6.00;99.90
66013;DHT22;52783;50.502;8.190;2024-01-06T13:54:36;6.00;99.90
66013;DHT22;52783;50.502;8.190;2024-01-06T13:57:02;6.00;99.90
66013;DHT22;52783;50.502;8.190;2024-01-06T13:59:28;6.00;99.90
66013;DHT22;52783;50.502;8.190;2024-01-06T14:01:54;6.00;99.90
66013;DHT22;52783;50.502;8.190;2024-01-06T14:04:19;6.00;99.90
66013;DHT22;52783;50.502;8.190;2024-01-06T14:06:45;6.00;99.90
66013;DHT22;52783;50.502;8.190;2024-01-06T14:09:13;6.10;99.90
66013;DHT22;52783;50.502;8.190;2024-01-06T14:11:38;6.10;99.90
66013;DHT22;52783;50.502;8.190;2024-01-06T14:14:04;6.10;99.90
66013;DHT22;52783;50.502;8.190;2024-01-06T14:16:30;6.10;99.90
66013;DHT22;52783;50.502;8.190;2024-01-06T14:18:56;6.10;99.90
66013;DHT22;52783;50.502;8.190;2024-01-06T14:21:21;6.20;99.90
66013;DHT22;52783;50.502;8.190;2024-01-06T14:23:47;6.10;99.90
66013;DHT22;52783;50.502;8.190;2024-01-06T14:26:15;6.10;99.90
66013;DHT22;52783;50.502;8.190;2024-01-06T14:28:42;6.00;99.90
66013;DHT22;52783;50.502;8.190;2024-01-06T14:31:07;6.10;99.90
66013;DHT22;52783;50.502;8.190;2024-01-06T14:33:35;6.10;99.90
66013;DHT22;52783;50.502;8.190;2024-01-06T14:36:01;6.00;99.90
66013;DHT22;52783;50.502;8.190;2024-01-06T14:38:26;6.00;99.90
66013;DHT22;52783;50.502;8.190;2024-01-06T14:40:52;5.90;99.90
66013;DHT22;52783;50.502;8.190;2024-01-06T14:43:18;5.80;99.90
66013;DHT22;52783;50.502;8.190;2024-01-06T14:45:44;5.80;99.90
66013;DHT22;52783;50.502;8.190;2024-01-06T14:48:09;5.70;99.90
66013;DHT22;52783;50.502;8.190;2024-01-06T14:50:35;5.80;99.90
66013;DHT22;52783;50.502;8.190;2024-01-06T14:53:01;5.60;99.90
66013;DHT22;52783;50.502;8.190;2024-01-06T14:55:27;5.70;99.90
66013;DHT22;52783;50.502;8.190;2024-01-06T14:57:52;5.60;99.90
66013;DHT22;52783;50.502;8.190;2024-01-06T15:00:18;5.60;99.90
66013;DHT22;52783;50.502;8.190;2024-01-06T15:02:43;5.60;99.90
66013;DHT22;52783;50.502;8.190;2024-01-06T15:05:11;5.50;99.90
66013;DHT22;52783;50.502;8.190;2024-01-06T15:07:37;5.60;99.90
66013;DHT22;52783;50.502;8.190;2024-01-06T15:10:03;5.60;99.90
66013;DHT22;52783;50.502;8.190;2024-01-06T15:12:29;5.60;99.90
66013;DHT22;52783;50.502;8.190;2024-01-06T15:14:55;5.60;99.90
66013;DHT22;52783;50.502;8.190;2024-01-06T15:17:20;5.60;99.90
66013;DHT22;52783;50.502;8.190;2024-01-06T15:19:46;5.60;99.90
66013;DHT22;52783;50.502;8.190;2024-01-06T15:22:12;5.70;99.90
66013;DHT22;52783;50.502;8.190;2024-01-06T15:24:39;5.60;99.90
66013;DHT22;52783;50.502;8.190;2024-01-06T15:27:04;5.60;99.90
66013;DHT22;52783;50.502;8.190;2024-01-06T15:29:30;5.60;99.90
66013;DHT22;52783;50.502;8.190;2024-01-06T15:31:55;5.50;99.90
66013;DHT22;52783;50.502;8.190;2024-01-06T15:34:23;5.50;99.90
66013;DHT22;52783;50.502;8.190;2024-01-06T15:36:49;5.50;99.90
66013;DHT22;52783;50.502;8.190;2024-01-06T15:39:14;5.50;99.90
66013;DHT22;52783;50.502;8.190;2024-01-06T15:41:40;5.50;99.90
66013;DHT22;52783;50.502;8.190;2024-01-06T15:44:06;5.50;99.90
66013;DHT22;52783;50.502;8.190;2024-01-06T15:46:31;5.60;99.90
66013;DHT22;52783;50.502;8.190;2024-01-06T15:48:57;5.50;99.90
66013;DHT22;52783;50.502;8.190;2024-01-06T15:51:23;5.50;99.90